Wytheville, Virginia
Current Conditions -  °F | °C
As of 9:55 AM on Wednesday 26 Nov 2014 (Local Time) from KMKJ Reporting Station
Light Snow Light Snow  
Wind Chill: 34°   Ceiling: 1400
Heat Index: 34°   Visibility: 0.5mi
Dew Point: 33°   Wind: 0mph
Humidity: 96%   Direction: NA
Pressure: 30.02"   Gusts: NA
Location:  36.95°N, 81.08°W
Report Text: KMKJ 261455Z AUTO 00000KT 1/2SM -SN OVC014 01/01 A3002 RMK AO2 P0014 60031 T00120006
Loading
Personal Weather Stations






























Interactive Weather Map New forecast layout! Learn more

10-Day Weather Forecast

Advertisements
Track Severe Weather on mobile